Time;durP1;ratioP1;P1;durP2;ratioP2;P2;SDS_P1;SDS_P2;PMS_P1;PMS_P2;Temp;Humidity;BMP_temperature;BMP_pressure;BME280_temperature;BME280_humidity;BME280_pressure;Samples;Min_cycle;Max_cycle;Signal;HPM_P1;HPM_P2
2022/09/07 00:00:47;;;;;;;7.85;6.18;;;;;;;17.50;59.54;100695.22;5077100;28;20315;-21
2022/09/07 00:03:12;;;;;;;6.68;6.07;;;;;;;17.47;59.38;100700.66;5077998;28;20043;-20
2022/09/07 00:05:45;;;;;;;6.90;6.05;;;;;;;17.47;59.35;100690.00;5077665;28;20391;-20
2022/09/07 00:08:10;;;;;;;6.40;5.80;;;;;;;17.43;59.39;100694.59;5072723;28;20036;-21
2022/09/07 00:10:36;;;;;;;7.65;7.00;;;;;;;17.38;59.51;100687.69;5073539;28;20434;-20
2022/09/07 00:13:02;;;;;;;6.75;6.15;;;;;;;17.34;59.49;100678.91;5070375;28;20060;-20
2022/09/07 00:15:28;;;;;;;8.48;6.47;;;;;;;17.31;59.70;100674.59;5076325;28;20060;-21
2022/09/07 00:17:53;;;;;;;6.28;5.68;;;;;;;17.28;59.38;100672.03;5081874;28;20063;-21
2022/09/07 00:20:19;;;;;;;6.30;5.70;;;;;;;17.27;59.73;100682.78;5077947;28;20028;-20
2022/09/07 00:22:45;;;;;;;7.57;6.43;;;;;;;17.25;59.61;100672.16;5077468;28;20028;-21
2022/09/07 00:25:10;;;;;;;6.63;6.03;;;;;;;17.28;59.65;100679.16;5076066;28;20070;-20
2022/09/07 00:27:35;;;;;;;6.78;6.13;;;;;;;17.23;59.64;100670.47;5070750;28;20051;-20
2022/09/07 00:30:01;;;;;;;6.40;5.80;;;;;;;17.17;59.60;100656.44;5054621;28;20039;-20
2022/09/07 00:32:26;;;;;;;6.45;5.85;;;;;;;17.17;59.68;100666.22;5069055;28;20031;-21
2022/09/07 00:34:51;;;;;;;6.53;5.90;;;;;;;17.15;59.66;100668.09;5079880;28;20068;-20
2022/09/07 00:37:17;;;;;;;6.78;6.18;;;;;;;17.17;59.75;100663.56;5073108;28;20090;-21
2022/09/07 00:39:42;;;;;;;7.18;6.47;;;;;;;17.13;59.66;100664.59;5068051;28;20468;-20
2022/09/07 00:42:07;;;;;;;7.18;6.47;;;;;;;17.18;59.94;100670.66;5075938;28;20032;-20
2022/09/07 00:44:42;;;;;;;7.35;6.65;;;;;;;17.16;59.77;100669.81;5074947;28;20020;-21
2022/09/07 00:47:19;;;;;;;7.68;6.18;;;;;;;17.09;59.43;100670.97;5068127;28;20573;-20
2022/09/07 00:49:47;;;;;;;7.35;6.63;;;;;;;17.05;59.88;100672.84;5051441;28;20410;-20
2022/09/07 00:52:14;;;;;;;6.50;5.90;;;;;;;17.04;59.75;100666.66;5074381;28;20024;-20
2022/09/07 00:54:43;;;;;;;7.43;6.72;;;;;;;17.00;59.96;100675.69;5072295;28;20115;-20
2022/09/07 00:57:09;;;;;;;7.07;6.47;;;;;;;16.98;60.26;100674.00;5080499;28;20024;-20
2022/09/07 00:59:40;;;;;;;8.60;6.47;;;;;;;16.95;60.10;100680.31;5083145;28;20038;-20
2022/09/07 01:02:06;;;;;;;7.75;7.05;;;;;;;16.95;60.20;100677.66;5075736;28;20280;-20
2022/09/07 01:04:31;;;;;;;7.18;6.50;;;;;;;16.90;60.43;100679.59;5079867;28;20055;-20
2022/09/07 01:06:57;;;;;;;8.23;6.82;;;;;;;16.85;60.47;100676.22;5079809;28;20032;-20
2022/09/07 01:09:24;;;;;;;7.90;6.68;;;;;;;16.86;60.46;100676.19;5074127;28;20029;-20
2022/09/07 01:11:51;;;;;;;7.18;6.57;;;;;;;16.84;60.60;100680.69;5074645;28;20404;-21
2022/09/07 01:14:26;;;;;;;9.40;6.55;;;;;;;16.86;60.34;100677.97;5073493;28;20028;-20
2022/09/07 01:17:19;;;;;;;7.25;6.47;;;;;;;16.86;60.70;100683.28;5076007;28;20016;-20
2022/09/07 01:20:16;;;;;;;7.40;6.70;;;;;;;16.82;60.75;100679.00;5062912;28;20024;-20
2022/09/07 01:23:02;;;;;;;8.55;7.75;;;;;;;16.77;60.91;100680.03;5069221;28;20029;-20
2022/09/07 01:26:13;;;;;;;8.80;7.60;;;;;;;16.80;61.17;100687.03;5068338;28;20032;-20
2022/09/07 01:28:39;;;;;;;8.15;7.35;;;;;;;16.79;61.07;100702.16;5071501;28;20082;-20
2022/09/07 01:31:20;;;;;;;8.63;7.82;;;;;;;16.80;60.98;100690.59;5053254;28;20409;-20
2022/09/07 01:33:54;;;;;;;10.15;7.80;;;;;;;16.82;61.07;100689.66;5075424;28;20021;-20
2022/09/07 01:36:48;;;;;;;9.32;7.55;;;;;;;16.82;60.68;100687.00;5070739;28;20115;-20
2022/09/07 01:39:15;;;;;;;8.95;7.57;;;;;;;16.74;61.00;100679.28;5061083;28;20055;-20
2022/09/07 01:42:09;;;;;;;8.90;8.00;;;;;;;16.76;61.13;100672.09;5051690;28;20059;-20
2022/09/07 01:44:39;;;;;;;9.18;8.38;;;;;;;16.75;61.19;100676.56;5059219;28;20027;-20
2022/09/07 01:47:14;;;;;;;7.90;7.20;;;;;;;16.80;60.80;100673.72;5060070;28;20020;-20
2022/09/07 01:49:56;;;;;;;9.20;8.35;;;;;;;16.69;60.52;100660.78;5059991;28;20016;-20
2022/09/07 01:52:33;;;;;;;8.68;7.78;;;;;;;16.67;60.39;100658.19;5067258;28;20020;-20
2022/09/07 01:55:04;;;;;;;9.10;8.20;;;;;;;16.72;60.37;100659.81;5074670;28;20035;-20
2022/09/07 01:57:34;;;;;;;9.07;8.18;;;;;;;16.68;60.41;100654.59;5058636;28;20123;-20
2022/09/07 02:00:14;;;;;;;8.98;8.07;;;;;;;16.64;60.59;100652.09;5062139;28;20051;-20
2022/09/07 02:02:58;;;;;;;8.30;7.50;;;;;;;16.61;60.77;100657.53;5076957;28;20490;-20
2022/09/07 02:05:30;;;;;;;8.27;7.57;;;;;;;16.56;60.44;100657.69;5052893;28;20399;-20
2022/09/07 02:08:08;;;;;;;9.13;8.23;;;;;;;16.55;60.94;100659.47;5054130;28;20027;-20
2022/09/07 02:10:44;;;;;;;9.15;8.35;;;;;;;16.52;60.68;100654.28;5072091;28;20033;-20
2022/09/07 02:13:15;;;;;;;8.68;7.82;;;;;;;16.55;60.88;100663.94;5055361;28;20086;-20
2022/09/07 02:15:45;;;;;;;;;;;;;;;16.54;61.01;100670.19;5058642;28;20029;-20
2022/09/07 02:18:13;;;;;;;8.70;7.78;;;;;;;16.51;61.05;100671.16;5055854;28;19961;-20
2022/09/07 02:20:39;;;;;;;11.10;8.40;;;;;;;16.50;61.20;100666.75;5051765;28;20035;-20
2022/09/07 02:23:12;;;;;;;9.88;8.88;;;;;;;16.44;61.51;100669.59;5049016;28;20023;-20
2022/09/07 02:26:09;;;;;;;10.07;9.13;;;;;;;16.42;61.65;100663.50;5049529;28;20058;-20
2022/09/07 02:28:35;;;;;;;9.48;8.48;;;;;;;16.35;61.46;100661.94;5067060;28;20024;-20
2022/09/07 02:31:01;;;;;;;9.65;8.75;;;;;;;16.33;61.54;100664.66;5068154;28;20035;-20
2022/09/07 02:33:27;;;;;;;8.90;8.00;;;;;;;16.33;61.43;100671.75;5071570;28;20024;-21
2022/09/07 02:35:52;;;;;;;9.43;8.45;;;;;;;16.32;61.54;100667.38;5070940;28;20128;-21
2022/09/07 02:38:19;;;;;;;10.27;8.45;;;;;;;16.32;61.72;100662.03;5054590;28;20032;-21
2022/09/07 02:40:52;;;;;;;10.27;8.27;;;;;;;16.32;61.73;100659.38;5074051;28;20016;-20
2022/09/07 02:43:18;;;;;;;9.50;8.60;;;;;;;16.27;61.48;100649.75;5054099;28;20058;-21
2022/09/07 02:45:53;;;;;;;9.13;8.23;;;;;;;16.28;61.52;100648.84;5049728;28;20420;-21
2022/09/07 02:48:31;;;;;;;8.55;7.60;;;;;;;16.34;61.65;100650.41;5084657;28;20063;-20
2022/09/07 02:51:17;;;;;;;9.88;8.75;;;;;;;16.33;61.37;100647.81;5069530;28;20028;-21
2022/09/07 02:54:24;;;;;;;9.98;8.68;;;;;;;16.30;61.51;100648.78;5056297;28;20424;-21
2022/09/07 02:57:05;;;;;;;9.63;8.63;;;;;;;16.31;61.55;100652.34;5039238;28;20048;-21
2022/09/07 02:59:38;;;;;;;10.13;8.95;;;;;;;16.27;61.77;100649.75;5046703;28;20079;-21
2022/09/07 03:02:10;;;;;;;9.40;8.50;;;;;;;16.29;62.10;100641.75;5073071;28;20024;-20
2022/09/07 03:04:50;;;;;;;8.82;8.02;;;;;;;16.32;61.87;100643.41;5074592;28;20042;-20
2022/09/07 03:07:21;;;;;;;9.27;8.48;;;;;;;16.26;61.53;100647.16;5043684;28;20032;-21
2022/09/07 03:09:49;;;;;;;9.60;8.70;;;;;;;16.21;61.86;100641.97;5054667;28;20055;-20
2022/09/07 03:12:15;;;;;;;10.63;9.60;;;;;;;16.24;62.00;100633.91;5052305;28;20249;-20
2022/09/07 03:14:41;;;;;;;10.40;8.55;;;;;;;16.22;61.98;100635.75;5065532;28;20537;-21
2022/09/07 03:17:07;;;;;;;10.43;9.07;;;;;;;16.22;61.80;100633.09;5074529;28;20023;-21
2022/09/07 03:19:32;;;;;;;10.98;9.38;;;;;;;16.22;62.03;100627.78;5073813;28;20465;-21
2022/09/07 03:21:57;;;;;;;10.73;9.48;;;;;;;16.19;61.88;100627.88;5055969;28;20098;-21
2022/09/07 03:24:23;;;;;;;12.90;8.93;;;;;;;16.20;62.01;100623.44;5055181;28;20025;-20
2022/09/07 03:26:50;;;;;;;9.63;8.63;;;;;;;16.19;61.96;100624.31;5066395;28;20039;-20
2022/09/07 03:29:15;;;;;;;10.55;9.02;;;;;;;16.21;62.04;100628.69;5068830;28;20035;-20
2022/09/07 03:31:40;;;;;;;10.30;9.18;;;;;;;16.21;62.14;100622.50;5059797;28;20029;-21
2022/09/07 03:34:06;;;;;;;10.35;9.23;;;;;;;16.20;62.02;100618.13;5071173;28;20423;-20
2022/09/07 03:36:32;;;;;;;10.27;9.10;;;;;;;16.23;62.02;100616.19;5055603;28;20079;-20
2022/09/07 03:38:58;;;;;;;9.93;9.00;;;;;;;16.22;61.92;100621.56;5072836;28;20081;-21
2022/09/07 03:41:24;;;;;;;11.35;9.07;;;;;;;16.17;62.10;100616.41;5045302;28;20095;-20
2022/09/07 03:43:49;;;;;;;9.90;8.63;;;;;;;16.20;62.34;100612.78;5065880;28;20067;-21
2022/09/07 03:46:18;;;;;;;10.63;9.55;;;;;;;16.16;62.06;100620.88;5070107;28;20472;-20
2022/09/07 03:48:44;;;;;;;10.63;9.57;;;;;;;16.14;62.09;100620.03;5061044;28;20056;-19
2022/09/07 03:51:10;;;;;;;10.63;9.52;;;;;;;16.14;62.22;100621.84;5049149;28;20031;-21
2022/09/07 03:53:38;;;;;;;9.85;8.95;;;;;;;16.12;62.35;100626.34;5071851;28;20388;-21
2022/09/07 03:56:06;;;;;;;10.70;9.60;;;;;;;16.16;62.43;100619.97;5058443;28;20043;-21
2022/09/07 03:58:32;;;;;;;11.57;9.15;;;;;;;16.14;62.40;100627.16;5051644;28;20024;-21
2022/09/07 04:00:58;;;;;;;9.55;8.55;;;;;;;16.15;62.49;100611.13;5061322;28;20115;-21
2022/09/07 04:03:24;;;;;;;12.07;9.30;;;;;;;16.07;62.54;100604.34;5071620;28;20570;-21
2022/09/07 04:05:49;;;;;;;9.90;8.75;;;;;;;16.09;62.89;100597.16;5043680;28;20035;-20
2022/09/07 04:08:14;;;;;;;10.18;9.18;;;;;;;16.09;63.59;100595.38;5067731;28;20028;-21
2022/09/07 04:10:40;;;;;;;10.85;9.82;;;;;;;16.09;63.83;100591.84;5067048;28;20131;-21
2022/09/07 04:13:05;;;;;;;10.23;9.15;;;;;;;16.11;63.25;100600.66;5056478;28;20052;-21
2022/09/07 04:15:31;;;;;;;11.65;10.45;;;;;;;16.08;63.90;100593.66;5072293;28;20108;-21
2022/09/07 04:17:56;;;;;;;11.07;9.98;;;;;;;16.08;63.72;100588.34;5076377;28;20063;-21
2022/09/07 04:20:22;;;;;;;11.40;10.20;;;;;;;16.03;63.64;100588.47;5075357;28;20035;-20
2022/09/07 04:22:48;;;;;;;10.88;9.65;;;;;;;16.09;63.88;100591.84;5068650;28;20459;-21
2022/09/07 04:25:13;;;;;;;11.00;9.90;;;;;;;16.11;63.70;100588.22;5054241;28;20122;-20
2022/09/07 04:27:39;;;;;;;12.50;10.25;;;;;;;16.08;64.25;100579.47;5068681;28;20032;-21
2022/09/07 04:30:05;;;;;;;10.50;9.40;;;;;;;16.10;63.42;100577.63;5067797;28;20036;-21
2022/09/07 04:32:30;;;;;;;11.35;10.18;;;;;;;16.19;63.83;100579.09;5070754;28;20452;-21
2022/09/07 04:34:55;;;;;;;10.40;9.40;;;;;;;16.15;63.64;100581.84;5070498;28;20035;-21
2022/09/07 04:37:20;;;;;;;10.65;9.60;;;;;;;16.10;63.99;100582.94;5054479;28;20028;-21
2022/09/07 04:39:46;;;;;;;10.70;9.23;;;;;;;16.15;64.38;100584.50;5067798;28;20062;-21
2022/09/07 04:42:11;;;;;;;11.05;9.43;;;;;;;16.16;63.88;100583.63;5053743;28;20025;-20
2022/09/07 04:44:36;;;;;;;10.57;9.57;;;;;;;16.18;63.71;100586.22;5070796;28;20410;-19
2022/09/07 04:47:02;;;;;;;11.00;9.90;;;;;;;16.16;63.95;100582.75;5048283;28;20619;-19
2022/09/07 04:49:27;;;;;;;10.55;9.48;;;;;;;16.17;64.03;100579.16;5084891;28;20062;-20
2022/09/07 04:51:52;;;;;;;11.07;10.02;;;;;;;16.15;64.63;100581.00;5069947;28;20476;-19
2022/09/07 04:54:18;;;;;;;10.57;9.57;;;;;;;16.21;64.00;100574.59;5070801;28;20048;-20
2022/09/07 04:56:43;;;;;;;10.63;9.52;;;;;;;16.19;63.76;100581.75;5071347;28;20028;-20
2022/09/07 04:59:09;;;;;;;11.55;10.35;;;;;;;16.15;64.99;100565.03;5071775;28;20037;-19
2022/09/07 05:01:34;;;;;;;12.02;10.93;;;;;;;16.08;64.61;100566.16;5052787;28;20021;-19
2022/09/07 05:04:00;;;;;;;10.80;9.70;;;;;;;16.14;64.78;100558.84;5070818;28;20468;-19
2022/09/07 05:06:25;;;;;;;11.45;10.25;;;;;;;16.17;64.54;100573.81;5070858;28;20033;-19
2022/09/07 05:08:52;;;;;;;12.95;9.98;;;;;;;16.17;64.28;100563.19;5077234;28;20539;-19
2022/09/07 05:11:19;;;;;;;11.27;10.18;;;;;;;16.23;64.30;100576.28;5053943;28;20119;-20
2022/09/07 05:13:44;;;;;;;12.45;10.13;;;;;;;16.17;64.19;100565.84;5073949;28;20512;-19
2022/09/07 05:16:18;;;;;;;12.98;10.27;;;;;;;16.16;64.21;100572.09;5068533;28;20033;-20
2022/09/07 05:18:43;;;;;;;10.63;9.55;;;;;;;16.19;64.41;100572.00;5068136;28;20020;-19
2022/09/07 05:21:14;;;;;;;10.98;10.02;;;;;;;16.19;64.84;100582.63;5038784;28;20033;-19
2022/09/07 05:23:40;;;;;;;;;;;;;;;16.22;64.27;100582.53;5037263;28;20565;-20
2022/09/07 05:26:05;;;;;;;11.65;10.57;;;;;;;16.21;65.59;100570.13;5061612;28;19968;-19
2022/09/07 05:28:32;;;;;;;11.38;10.10;;;;;;;16.20;65.16;100571.06;5072275;28;20469;-19
2022/09/07 05:31:26;;;;;;;12.10;10.93;;;;;;;16.20;65.15;100571.06;5071130;28;20024;-19
2022/09/07 05:33:53;;;;;;;12.27;11.07;;;;;;;16.23;65.13;100567.41;5042525;28;20055;-19
2022/09/07 05:36:19;;;;;;;11.35;10.15;;;;;;;16.25;65.17;100560.28;5071878;28;20107;-19
2022/09/07 05:38:45;;;;;;;11.93;10.55;;;;;;;16.23;64.69;100555.00;5054150;28;20511;-20
2022/09/07 05:41:16;;;;;;;12.23;10.98;;;;;;;16.21;65.47;100556.84;5053904;28;20028;-19
2022/09/07 05:43:41;;;;;;;11.50;10.40;;;;;;;16.22;64.89;100561.25;5071449;28;20017;-19
2022/09/07 05:46:08;;;;;;;11.32;10.13;;;;;;;16.20;65.60;100565.75;5070457;28;20395;-19
2022/09/07 05:48:33;;;;;;;11.65;10.48;;;;;;;16.17;65.53;100568.50;5071271;28;20024;-19
2022/09/07 05:50:58;;;;;;;11.95;10.68;;;;;;;16.19;66.37;100564.00;5071381;28;20035;-20
2022/09/07 05:53:24;;;;;;;10.88;9.88;;;;;;;16.21;65.98;100564.81;5071518;28;20016;-19
2022/09/07 05:55:49;;;;;;;12.15;10.55;;;;;;;16.24;65.51;100563.88;5053151;28;20044;-19
2022/09/07 05:58:15;;;;;;;11.50;10.02;;;;;;;16.23;66.75;100556.78;5053592;28;20021;-19
2022/09/07 06:00:41;;;;;;;11.32;10.07;;;;;;;16.23;66.85;100557.66;5052823;28;20484;-19
2022/09/07 06:03:06;;;;;;;11.32;10.23;;;;;;;16.26;67.12;100557.56;5063800;28;20040;-19
2022/09/07 06:05:31;;;;;;;12.07;10.80;;;;;;;16.27;66.15;100548.66;5053193;28;20032;-19
2022/09/07 06:07:57;;;;;;;12.55;11.20;;;;;;;16.33;65.57;100552.88;5070583;28;20033;-19
2022/09/07 06:10:22;;;;;;;12.32;11.00;;;;;;;16.33;65.34;100558.22;5071381;28;20036;-19
2022/09/07 06:12:48;;;;;;;14.88;9.68;;;;;;;16.39;65.06;100559.78;5052340;28;20025;-22
2022/09/07 06:15:13;;;;;;;11.48;10.32;;;;;;;16.42;66.61;100554.34;5053583;28;20033;-19
2022/09/07 06:17:38;;;;;;;11.23;9.70;;;;;;;16.42;66.22;100552.56;5053205;28;20028;-19
2022/09/07 06:20:05;;;;;;;10.90;9.75;;;;;;;16.47;64.84;100546.22;5071246;28;20032;-20
2022/09/07 06:22:33;;;;;;;10.88;9.88;;;;;;;16.53;66.09;100536.22;5052147;28;20017;-20
2022/09/07 06:24:58;;;;;;;11.95;10.75;;;;;;;16.51;64.98;100551.34;5050024;28;20020;-20
2022/09/07 06:27:24;;;;;;;11.57;10.27;;;;;;;16.56;64.82;100561.84;5071405;28;20025;-19
2022/09/07 06:29:49;;;;;;;12.88;10.38;;;;;;;16.64;65.86;100573.06;5053404;28;20544;-19
2022/09/07 06:32:15;;;;;;;13.85;10.10;;;;;;;16.68;65.13;100557.88;5071129;28;20020;-19
2022/09/07 06:34:40;;;;;;;11.18;10.07;;;;;;;16.73;64.01;100561.22;5052892;28;20032;-20
2022/09/07 06:37:05;;;;;;;11.32;10.18;;;;;;;16.77;65.23;100588.59;5052622;28;20321;-20
2022/09/07 06:39:31;;;;;;;11.68;10.48;;;;;;;16.85;66.36;100585.69;5051046;28;20074;-19
2022/09/07 06:41:56;;;;;;;11.50;10.40;;;;;;;16.89;66.60;100565.97;5033669;28;20017;-19
2022/09/07 06:44:21;;;;;;;12.55;11.23;;;;;;;16.89;67.31;100573.97;5053791;28;20031;-19
2022/09/07 06:46:47;;;;;;;12.30;11.10;;;;;;;16.97;64.25;100589.69;5070942;28;20025;-20
2022/09/07 06:49:12;;;;;;;12.45;10.65;;;;;;;17.03;63.87;100577.00;5070907;28;20025;-20
2022/09/07 06:51:37;;;;;;;12.63;10.93;;;;;;;17.04;63.96;100576.06;5070529;28;20036;-20
2022/09/07 06:54:04;;;;;;;12.10;10.35;;;;;;;17.07;64.04;100575.09;5064327;28;20484;-20
2022/09/07 06:56:30;;;;;;;12.82;11.43;;;;;;;17.11;65.30;100586.53;5033174;28;20028;-20
2022/09/07 06:58:56;;;;;;;12.63;11.30;;;;;;;17.16;65.84;100596.09;5057663;28;20038;-20
2022/09/07 07:01:22;;;;;;;13.45;12.02;;;;;;;17.18;64.21;100588.88;5071005;28;20025;-20
2022/09/07 07:03:49;;;;;;;14.13;12.60;;;;;;;17.18;65.15;100572.91;5070628;28;20020;-20
2022/09/07 07:06:14;;;;;;;13.35;11.45;;;;;;;17.25;65.61;100581.56;5068905;28;20024;-19
2022/09/07 07:08:40;;;;;;;12.25;11.05;;;;;;;17.28;66.00;100589.41;5049957;28;20112;-20
2022/09/07 07:11:07;;;;;;;12.65;11.20;;;;;;;17.32;64.86;100579.50;5050742;28;20064;-20
2022/09/07 07:13:36;;;;;;;12.95;11.60;;;;;;;17.36;66.46;100590.91;5050637;28;20017;-20
2022/09/07 07:16:12;;;;;;;13.73;11.95;;;;;;;17.40;65.17;100589.84;5065848;28;20067;-20
2022/09/07 07:18:38;;;;;;;13.85;11.55;;;;;;;17.42;67.34;100604.88;5070864;28;20033;-20
2022/09/07 07:21:05;;;;;;;16.30;12.57;;;;;;;17.50;65.37;100607.22;5052179;28;20039;-20
2022/09/07 07:23:30;;;;;;;13.77;12.38;;;;;;;17.53;66.27;100577.78;5070474;28;20044;-20
2022/09/07 07:26:03;;;;;;;15.10;12.82;;;;;;;17.56;64.99;100588.34;5056540;28;20141;-20
2022/09/07 07:28:29;;;;;;;14.70;12.07;;;;;;;17.64;65.07;100595.16;5056374;28;20024;-20
2022/09/07 07:30:58;;;;;;;13.73;12.38;;;;;;;17.67;68.27;100589.69;5073955;28;20048;-20
2022/09/07 07:33:23;;;;;;;17.63;12.32;;;;;;;17.70;64.72;100594.91;5074111;28;20027;-19
2022/09/07 07:35:49;;;;;;;16.17;13.15;;;;;;;17.74;65.38;100585.84;5073634;28;20116;-20
2022/09/07 07:38:14;;;;;;;13.52;12.20;;;;;;;17.80;65.55;100596.28;5031676;28;20095;-20
2022/09/07 07:40:39;;;;;;;15.82;13.15;;;;;;;17.83;64.64;100585.47;5054166;28;20029;-20
2022/09/07 07:43:05;;;;;;;15.02;13.02;;;;;;;17.90;64.39;100585.22;5036011;28;20021;-20
2022/09/07 07:45:30;;;;;;;15.43;13.93;;;;;;;17.93;65.97;100585.97;5053733;28;20029;-20
2022/09/07 07:47:55;;;;;;;15.02;13.43;;;;;;;17.96;66.71;100574.28;5060738;28;20455;-19
2022/09/07 07:50:21;;;;;;;16.17;13.43;;;;;;;18.01;65.40;100576.78;5055204;28;20444;-20
2022/09/07 07:52:46;;;;;;;13.30;11.50;;;;;;;18.07;65.41;100577.38;5063928;28;20030;-20
2022/09/07 07:55:11;;;;;;;13.27;11.93;;;;;;;18.13;65.37;100586.97;5073862;28;20036;-20
2022/09/07 07:57:36;;;;;;;13.43;12.07;;;;;;;18.17;63.81;100569.88;5055388;28;20453;-20
2022/09/07 08:00:03;;;;;;;14.30;12.50;;;;;;;18.20;64.11;100574.22;5073688;28;20024;-20
2022/09/07 08:02:28;;;;;;;14.93;13.43;;;;;;;18.23;65.92;100581.25;5073717;28;20119;-19
2022/09/07 08:04:54;;;;;;;14.75;13.18;;;;;;;18.25;66.20;100580.25;5055016;28;20063;-20
2022/09/07 08:07:19;;;;;;;15.02;13.45;;;;;;;18.29;66.06;100560.47;5064982;28;20400;-20
2022/09/07 08:09:46;;;;;;;13.65;12.32;;;;;;;18.34;66.26;100563.81;5054686;28;20036;-19
2022/09/07 08:12:15;;;;;;;17.10;13.85;;;;;;;18.42;65.84;100566.16;5073689;28;20059;-20
2022/09/07 08:14:41;;;;;;;12.45;11.35;;;;;;;18.51;65.21;100556.00;5072714;28;20028;-19
2022/09/07 08:17:06;;;;;;;14.23;12.00;;;;;;;18.54;64.92;100563.88;5073836;28;20024;-20
2022/09/07 08:19:32;;;;;;;13.60;12.25;;;;;;;18.59;65.56;100561.88;5072568;28;20025;-20
2022/09/07 08:21:57;;;;;;;12.88;11.52;;;;;;;18.68;64.48;100555.25;5052708;28;20048;-19
2022/09/07 08:24:23;;;;;;;12.30;11.00;;;;;;;18.74;64.69;100554.94;5064037;28;20030;-19
2022/09/07 08:26:48;;;;;;;13.10;11.80;;;;;;;18.83;64.23;100565.22;5035879;28;20055;-19
2022/09/07 08:29:13;;;;;;;12.35;10.75;;;;;;;18.88;63.81;100548.13;5052201;28;20296;-19
2022/09/07 08:31:39;;;;;;;13.02;11.65;;;;;;;18.96;63.73;100545.97;5055233;28;20071;-20
2022/09/07 08:34:06;;;;;;;13.52;12.10;;;;;;;18.98;64.73;100563.66;5054104;28;20046;-19
2022/09/07 08:36:31;;;;;;;14.23;11.73;;;;;;;19.07;63.91;100557.03;5054123;28;20032;-19
2022/09/07 08:38:57;;;;;;;13.80;12.27;;;;;;;19.03;64.46;100555.44;5072889;28;20078;-19
2022/09/07 08:41:45;;;;;;;12.68;11.18;;;;;;;19.13;64.63;100553.22;5073137;28;20290;-19
2022/09/07 08:44:17;;;;;;;12.60;11.38;;;;;;;19.23;64.53;100553.66;5035046;28;20036;-19
2022/09/07 08:46:56;;;;;;;13.25;11.40;;;;;;;19.31;64.71;100556.81;5051538;28;20036;-20
2022/09/07 08:49:31;;;;;;;12.05;10.80;;;;;;;19.45;63.44;100560.66;5047098;28;20038;-19
2022/09/07 08:52:04;;;;;;;13.40;11.13;;;;;;;19.50;63.85;100558.59;5072296;28;20063;-20
2022/09/07 08:54:30;;;;;;;13.32;12.02;;;;;;;19.54;64.39;100565.53;5035986;28;20143;-19
2022/09/07 08:57:01;;;;;;;12.27;11.02;;;;;;;19.55;64.25;100556.59;5034784;28;20564;-19
2022/09/07 08:59:35;;;;;;;12.98;10.70;;;;;;;19.68;64.28;100561.34;5063427;28;20077;-20
2022/09/07 09:02:00;;;;;;;11.50;10.40;;;;;;;19.74;63.38;100566.41;5054760;28;20498;-20
2022/09/07 09:04:28;;;;;;;12.10;10.85;;;;;;;19.84;63.61;100551.59;5053677;28;20024;-20
2022/09/07 09:07:29;;;;;;;12.88;11.57;;;;;;;19.93;63.62;100566.31;5072252;28;20021;-20
2022/09/07 09:10:00;;;;;;;;;;;;;;;20.01;63.74;100568.66;5041697;28;20040;-20
2022/09/07 09:12:32;;;;;;;;;;;;;;;20.10;62.99;100568.19;5072585;28;19908;-20
2022/09/07 09:15:31;;;;;;;12.48;11.27;;;;;;;20.11;64.00;100569.91;5072263;28;19926;-19
2022/09/07 09:18:02;;;;;;;12.80;11.60;;;;;;;20.27;63.50;100574.47;5071184;28;20028;-20
2022/09/07 09:20:36;;;;;;;14.65;11.48;;;;;;;20.48;62.71;100575.16;5038353;28;20024;-20
2022/09/07 09:23:09;;;;;;;16.83;11.77;;;;;;;20.66;62.53;100596.56;5035038;28;20051;-20
2022/09/07 09:25:35;;;;;;;15.18;13.60;;;;;;;20.85;63.13;100600.97;5034133;28;20032;-19
2022/09/07 09:28:01;;;;;;;14.50;12.95;;;;;;;20.95;62.31;100602.25;5034322;28;20123;-20
2022/09/07 09:30:27;;;;;;;14.10;11.50;;;;;;;21.04;62.21;100600.84;5051999;28;20447;-20
2022/09/07 09:33:24;;;;;;;13.73;12.43;;;;;;;21.14;62.61;100602.09;5046567;28;20020;-20
2022/09/07 09:35:52;;;;;;;13.38;12.00;;;;;;;21.24;62.44;100601.59;5064718;28;20062;-20
2022/09/07 09:38:34;;;;;;;14.05;12.60;;;;;;;21.34;62.21;100596.56;5054153;28;20040;-20
2022/09/07 09:41:03;;;;;;;16.80;12.52;;;;;;;21.46;61.99;100600.38;5072231;28;20036;-20
2022/09/07 09:43:38;;;;;;;15.13;13.48;;;;;;;21.55;61.29;100605.22;5073035;28;20078;-20
2022/09/07 09:46:15;;;;;;;13.32;11.93;;;;;;;21.65;61.01;100600.22;5072576;28;20032;-20
2022/09/07 09:48:41;;;;;;;13.93;11.30;;;;;;;21.71;60.20;100588.25;5070160;28;20021;-20
2022/09/07 09:51:07;;;;;;;14.77;13.02;;;;;;;21.83;60.78;100586.69;5054031;28;20042;-20
2022/09/07 09:53:36;;;;;;;12.95;11.48;;;;;;;21.91;60.67;100589.81;5053296;28;20020;-20
2022/09/07 09:56:02;;;;;;;14.75;11.38;;;;;;;22.05;60.81;100580.94;5037158;28;20034;-20
2022/09/07 09:58:36;;;;;;;11.95;10.60;;;;;;;22.17;60.88;100582.91;5055368;28;20115;-20
2022/09/07 10:01:22;;;;;;;12.95;11.18;;;;;;;22.37;60.42;100579.97;5072734;28;20502;-20
2022/09/07 10:03:48;;;;;;;13.48;12.10;;;;;;;22.41;61.42;100571.63;5048900;28;20025;-21
2022/09/07 10:06:15;;;;;;;11.98;10.88;;;;;;;22.65;59.92;100565.75;5056608;28;20047;-21
2022/09/07 10:08:56;;;;;;;13.32;11.30;;;;;;;22.85;60.36;100571.69;5074725;28;20575;-21
2022/09/07 10:11:40;;;;;;;12.05;10.95;;;;;;;22.99;59.93;100569.94;5055057;28;20083;-21
2022/09/07 10:14:17;;;;;;;12.80;11.25;;;;;;;23.24;59.12;100560.31;5071505;28;20021;-21
2022/09/07 10:16:43;;;;;;;11.63;10.63;;;;;;;23.44;58.75;100557.22;5052859;28;20028;-21
2022/09/07 10:19:34;;;;;;;14.45;11.27;;;;;;;23.67;58.09;100552.16;5064215;28;20079;-21
2022/09/07 10:22:19;;;;;;;12.85;11.57;;;;;;;23.84;57.70;100542.06;5016819;28;20037;-21
2022/09/07 10:24:44;;;;;;;12.13;10.82;;;;;;;23.90;58.34;100544.34;5051342;28;20056;-21
2022/09/07 10:27:35;;;;;;;11.43;10.40;;;;;;;24.07;57.82;100550.41;5033575;28;20106;-21
2022/09/07 10:30:01;;;;;;;13.45;10.70;;;;;;;24.22;56.91;100543.16;5048202;28;20510;-21
2022/09/07 10:32:39;;;;;;;11.75;10.65;;;;;;;24.39;56.58;100544.66;5070525;28;20037;-21
2022/09/07 10:35:19;;;;;;;11.30;10.30;;;;;;;24.53;57.13;100543.69;5038553;28;20028;-21
2022/09/07 10:38:02;;;;;;;12.07;10.57;;;;;;;24.75;56.60;100538.59;5033455;28;20021;-21
2022/09/07 10:40:54;;;;;;;10.43;9.35;;;;;;;24.95;56.39;100539.91;5051375;28;20365;-21
2022/09/07 10:43:31;;;;;;;11.43;10.43;;;;;;;25.06;56.03;100536.41;5050821;28;20044;-21
2022/09/07 10:46:27;;;;;;;12.45;9.93;;;;;;;25.28;55.24;100545.66;5056819;28;20143;-21
2022/09/07 10:49:08;;;;;;;11.77;10.68;;;;;;;25.43;55.36;100543.63;5047615;28;20052;-21
2022/09/07 10:51:37;;;;;;;10.48;9.48;;;;;;;25.56;55.32;100546.28;5051867;28;20074;-21
2022/09/07 10:54:31;;;;;;;10.93;9.95;;;;;;;25.73;55.10;100540.53;5070796;28;20238;-21
2022/09/07 10:57:03;;;;;;;12.05;9.50;;;;;;;25.89;54.71;100544.75;5028579;28;20045;-21
2022/09/07 11:00:08;;;;;;;10.68;9.57;;;;;;;26.04;54.61;100540.00;5054449;28;20756;-21
2022/09/07 11:02:44;;;;;;;10.80;9.80;;;;;;;26.22;53.80;100535.03;5008923;28;20038;-20
2022/09/07 11:05:46;;;;;;;9.63;8.82;;;;;;;26.37;53.79;100524.88;4961177;28;20732;-21
2022/09/07 11:08:33;;;;;;;10.15;9.15;;;;;;;26.59;53.21;100527.72;5041874;28;20041;-21
2022/09/07 11:11:10;;;;;;;9.82;8.95;;;;;;;26.78;53.46;100513.59;5037715;28;20032;-21
2022/09/07 11:13:38;;;;;;;10.10;9.27;;;;;;;26.89;53.05;100515.41;5052827;28;20426;-21
2022/09/07 11:16:07;;;;;;;10.68;9.27;;;;;;;27.08;53.07;100512.09;5050336;28;20138;-21
2022/09/07 11:18:38;;;;;;;9.73;8.90;;;;;;;27.26;52.20;100515.13;5029022;28;20480;-21
2022/09/07 11:21:10;;;;;;;9.80;8.98;;;;;;;27.31;52.12;100503.94;5069889;28;20465;-21
2022/09/07 11:24:07;;;;;;;11.43;8.65;;;;;;;27.44;52.45;100498.31;5064244;28;20032;-21
2022/09/07 11:26:46;;;;;;;10.10;8.00;;;;;;;27.58;51.63;100499.91;5055905;28;20380;-21
2022/09/07 11:29:20;;;;;;;10.25;9.45;;;;;;;27.67;51.83;100499.13;5073627;28;20384;-21
2022/09/07 11:32:06;;;;;;;9.57;8.88;;;;;;;27.76;50.95;100497.50;5062758;28;20035;-21